Time;durP1;ratioP1;P1;durP2;ratioP2;P2;SDS_P1;SDS_P2;PMS_P1;PMS_P2;Temp;Humidity;BMP_temperature;BMP_pressure;BME280_temperature;BME280_humidity;BME280_pressure;Samples;Min_cycle;Max_cycle;Signal;HPM_P1;HPM_P2
2022/01/29 00:04:17;;;;;;;12.70;4.80;;;0.10;99.90;;;;;;10288486;28;20775;-85
2022/01/29 00:09:17;;;;;;;10.20;4.30;;;0.10;99.90;;;;;;10288786;28;20066;-85
2022/01/29 00:14:18;;;;;;;10.67;3.50;;;0.00;99.90;;;;;;10288110;28;20038;-84
2022/01/29 00:19:18;;;;;;;9.33;4.00;;;-0.10;99.90;;;;;;10288127;28;20446;-84
2022/01/29 00:24:19;;;;;;;11.90;3.97;;;-0.20;99.90;;;;;;10287623;28;20035;-86
2022/01/29 00:29:22;;;;;;;10.17;3.60;;;-0.30;99.90;;;;;;10287588;28;20039;-84
2022/01/29 00:34:22;;;;;;;9.97;3.53;;;-0.40;99.90;;;;;;10286523;28;20070;-84
2022/01/29 00:39:23;;;;;;;8.07;3.63;;;-0.50;99.90;;;;;;10288050;28;20130;-84
2022/01/29 00:44:24;;;;;;;14.17;5.73;;;-0.60;99.90;;;;;;10286809;28;20091;-86
2022/01/29 00:49:24;;;;;;;16.23;6.13;;;-0.70;99.90;;;;;;10287026;28;20070;-83
2022/01/29 00:54:25;;;;;;;15.80;5.70;;;-0.80;99.90;;;;;;10286888;28;20041;-85
2022/01/29 00:59:25;;;;;;;23.03;9.23;;;-0.90;99.90;;;;;;10286977;28;20046;-84
2022/01/29 01:04:26;;;;;;;42.70;16.60;;;-0.90;99.90;;;;;;10286338;28;20129;-84
2022/01/29 01:09:26;;;;;;;31.83;12.97;;;-1.00;99.90;;;;;;10286371;28;20026;-85
2022/01/29 01:14:27;;;;;;;27.20;11.57;;;-1.10;99.90;;;;;;10269059;28;20046;-84
2022/01/29 01:19:28;;;;;;;30.80;12.07;;;-1.20;99.90;;;;;;10286715;28;20090;-85
2022/01/29 01:24:28;;;;;;;36.30;13.80;;;-1.30;99.90;;;;;;10268331;28;20065;-86
2022/01/29 01:29:29;;;;;;;30.73;13.87;;;-1.30;99.90;;;;;;10285822;28;20043;-85
2022/01/29 01:34:33;;;;;;;26.53;13.27;;;-1.40;99.90;;;;;;10285957;28;20039;-85
2022/01/29 01:39:37;;;;;;;30.40;14.20;;;-1.40;99.90;;;;;;10286357;28;20034;-86
2022/01/29 01:44:42;;;;;;;34.50;14.57;;;-1.40;99.90;;;;;;10289364;28;20027;-86
2022/01/29 01:49:43;;;;;;;35.15;13.10;;;-1.50;99.90;;;;;;10276420;28;20045;-85
2022/01/29 01:54:44;;;;;;;25.23;10.93;;;-1.50;99.90;;;;;;10294428;28;20035;-86
2022/01/29 01:59:45;;;;;;;29.23;11.23;;;-1.50;99.90;;;;;;10292646;28;20042;-85
2022/01/29 02:04:46;;;;;;;27.37;12.80;;;-1.60;99.90;;;;;;10292395;28;20054;-86
2022/01/29 02:09:47;;;;;;;30.50;12.07;;;-1.60;99.90;;;;;;10292885;28;20031;-86
2022/01/29 02:14:47;;;;;;;27.83;13.10;;;-1.60;99.90;;;;;;10275002;28;20121;-86
2022/01/29 02:19:48;;;;;;;32.33;15.97;;;-1.70;99.90;;;;;;10275563;28;20038;-85
2022/01/29 02:24:48;;;;;;;48.17;22.00;;;-1.70;99.90;;;;;;10275081;28;20031;-89
2022/01/29 02:29:49;;;;;;;39.23;19.10;;;-1.70;99.90;;;;;;10275069;28;20043;-85
2022/01/29 02:34:50;;;;;;;33.43;15.17;;;-1.70;99.90;;;;;;10274629;28;20069;-86
2022/01/29 02:39:51;;;;;;;36.63;13.93;;;-1.70;99.90;;;;;;10275310;28;20130;-86
2022/01/29 02:44:51;;;;;;;35.33;16.10;;;-1.80;99.90;;;;;;10274930;28;20043;-89
2022/01/29 02:49:52;;;;;;;43.03;18.07;;;-1.80;99.90;;;;;;10274807;28;20597;-85
2022/01/29 02:54:52;;;;;;;35.80;17.07;;;-1.90;99.90;;;;;;10290477;28;20035;-84
2022/01/29 02:59:57;;;;;;;38.57;16.97;;;-1.90;99.90;;;;;;10273238;28;20045;-86
2022/01/29 03:04:58;;;;;;;54.17;20.87;;;-2.00;99.90;;;;;;10291880;28;20062;-86
2022/01/29 03:09:58;;;;;;;47.17;22.33;;;-2.20;99.90;;;;;;10274614;28;20069;-86
2022/01/29 03:14:59;;;;;;;58.20;23.00;;;-2.20;99.90;;;;;;10268168;28;20521;-86
2022/01/29 03:20:00;;;;;;;56.17;25.10;;;-2.10;99.90;;;;;;10290789;28;20034;-85
2022/01/29 03:25:01;;;;;;;60.77;25.23;;;-2.10;99.90;;;;;;10291138;28;20446;-88
2022/01/29 03:30:03;;;;;;;54.03;22.80;;;-2.10;99.90;;;;;;10272876;28;20034;-85
2022/01/29 03:35:04;;;;;;;36.20;18.47;;;-2.00;99.90;;;;;;10290387;28;20089;-86
2022/01/29 03:40:07;;;;;;;32.17;15.30;;;-2.00;99.90;;;;;;10289498;28;20047;-86
2022/01/29 03:45:09;;;;;;;31.07;14.83;;;-1.90;99.90;;;;;;10289502;28;20100;-86
2022/01/29 03:50:10;;;;;;;27.47;12.63;;;-1.90;99.90;;;;;;10272129;28;20034;-86
2022/01/29 03:55:11;;;;;;;36.83;14.97;;;-1.90;99.90;;;;;;10288987;28;20042;-87
2022/01/29 04:00:12;;;;;;;42.77;19.00;;;-1.90;99.90;;;;;;10271383;28;20487;-87
2022/01/29 04:05:12;;;;;;;45.40;20.90;;;-2.00;99.90;;;;;;10271143;28;20035;-89
2022/01/29 04:10:13;;;;;;;55.77;22.50;;;-2.00;99.90;;;;;;10288685;28;20669;-87
2022/01/29 04:15:14;;;;;;;50.70;23.00;;;-2.10;99.90;;;;;;10269953;28;20391;-88
2022/01/29 04:20:14;;;;;;;98.13;37.40;;;-2.20;99.90;;;;;;10289101;28;20061;-86
2022/01/29 04:25:15;;;;;;;154.13;53.43;;;-2.20;99.90;;;;;;10271183;28;20443;-85
2022/01/29 04:35:29;;;;;;;141.43;50.87;;;-2.30;99.90;;;;;;10287683;28;20121;-88
2022/01/29 04:40:30;;;;;;;187.53;63.80;;;-2.30;99.90;;;;;;10270408;28;20035;-89
2022/01/29 04:45:31;;;;;;;251.67;87.60;;;-2.40;99.90;;;;;;10287060;28;20379;-85
2022/01/29 04:50:32;;;;;;;312.07;106.90;;;-2.50;99.90;;;;;;10270380;28;20427;-86
2022/01/29 04:55:33;;;;;;;227.13;101.80;;;-2.50;99.90;;;;;;10266864;28;20035;-85
2022/01/29 05:00:35;;;;;;;101.80;46.63;;;-2.50;99.90;;;;;;10268626;28;20380;-88
2022/01/29 05:05:36;;;;;;;135.27;57.73;;;-2.50;99.90;;;;;;10270050;28;20050;-85
2022/01/29 05:10:36;;;;;;;141.03;64.73;;;-2.50;99.90;;;;;;10286959;28;20059;-86
2022/01/29 05:15:46;;;;;;;126.43;57.70;;;-2.50;99.90;;;;;;10286091;28;20050;-84
2022/01/29 05:31:25;;;;;;;103.77;46.33;;;-2.20;99.90;;;;;;10285883;28;20039;-85
2022/01/29 05:36:26;;;;;;;97.33;45.77;;;-2.10;99.90;;;;;;10283723;28;20043;-85
2022/01/29 05:41:28;;;;;;;109.50;49.43;;;-2.10;99.90;;;;;;10268215;28;20082;-85
2022/01/29 05:46:28;;;;;;;83.33;39.07;;;-2.00;99.90;;;;;;10285707;28;20419;-86
2022/01/29 05:51:30;;;;;;;73.67;36.90;;;-2.00;99.90;;;;;;10286243;28;20027;-86
2022/01/29 05:56:30;;;;;;;81.30;35.33;;;-2.00;99.90;;;;;;10268152;28;20051;-86
2022/01/29 06:01:31;;;;;;;80.90;37.83;;;-2.10;99.90;;;;;;10285037;28;20416;-86
2022/01/29 06:06:32;;;;;;;83.63;37.63;;;-2.00;99.90;;;;;;10278921;28;20023;-84
2022/01/29 06:11:33;;;;;;;80.97;38.70;;;-2.00;99.90;;;;;;10284105;28;20073;-83
2022/01/29 06:16:34;;;;;;;83.23;37.27;;;-2.00;99.90;;;;;;10284521;28;20438;-84
2022/01/29 06:21:35;;;;;;;87.03;39.10;;;-2.20;99.90;;;;;;10284819;28;20086;-84
2022/01/29 06:26:35;;;;;;;82.37;39.53;;;-2.10;99.90;;;;;;10280849;28;20114;-85
2022/01/29 06:31:36;;;;;;;77.30;38.57;;;-2.00;99.90;;;;;;10288898;28;20030;-85
2022/01/29 06:36:37;;;;;;;79.10;39.20;;;-1.80;99.90;;;;;;10291221;28;20037;-84
2022/01/29 06:41:37;;;;;;;87.13;40.47;;;-1.60;99.90;;;;;;10292127;28;20379;-90
2022/01/29 06:46:38;;;;;;;247.90;92.93;;;-1.50;99.90;;;;;;10274487;28;20039;-90
2022/01/29 06:51:38;;;;;;;90.93;40.47;;;-1.40;99.90;;;;;;10250219;29;20031;-88
2022/01/29 06:56:39;;;;;;;84.40;38.50;;;-1.30;99.90;;;;;;10283640;28;20039;-90
2022/01/29 07:01:40;;;;;;;98.67;48.77;;;-1.20;99.90;;;;;;10291462;28;20108;-89
2022/01/29 07:06:40;;;;;;;91.73;45.00;;;-1.20;99.90;;;;;;10273846;28;20045;-87
2022/01/29 07:11:43;;;;;;;106.93;50.17;;;-1.20;99.90;;;;;;10274028;28;20037;-87
2022/01/29 07:16:44;;;;;;;96.27;44.53;;;-1.10;99.90;;;;;;10273850;28;20126;-87
2022/01/29 07:21:44;;;;;;;108.27;50.47;;;-0.90;99.90;;;;;;10291078;28;20161;-86
2022/01/29 07:26:45;;;;;;;146.63;63.63;;;-0.80;99.90;;;;;;10284463;28;20042;-86
2022/01/29 07:31:46;;;;;;;275.07;128.93;;;-0.70;99.90;;;;;;10256746;28;20117;-86
2022/01/29 07:36:46;;;;;;;342.13;161.80;;;-0.60;99.90;;;;;;10290050;28;20097;-87
2022/01/29 07:41:48;;;;;;;129.40;57.13;;;-0.40;99.90;;;;;;10284647;28;20031;-89
2022/01/29 07:46:48;;;;;;;72.60;32.10;;;-0.20;99.90;;;;;;10272148;28;20035;-88
2022/01/29 07:51:49;;;;;;;121.83;54.63;;;-0.20;99.90;;;;;;10290939;28;20023;-89
2022/01/29 07:56:50;;;;;;;156.87;60.50;;;0.00;99.90;;;;;;10271277;28;20190;-88
2022/01/29 08:01:50;;;;;;;135.70;53.27;;;0.00;99.90;;;;;;10271777;28;20059;-86
2022/01/29 08:06:51;;;;;;;222.40;92.80;;;0.10;99.90;;;;;;10290295;28;20042;-85
2022/01/29 08:11:52;;;;;;;221.83;81.07;;;0.00;99.90;;;;;;10289527;28;20085;-85
2022/01/29 08:16:52;;;;;;;199.73;75.20;;;0.00;99.90;;;;;;10288984;28;20039;-86
2022/01/29 08:21:53;;;;;;;147.27;57.93;;;0.30;99.90;;;;;;10269539;28;20031;-86
2022/01/29 08:26:53;;;;;;;103.37;39.63;;;0.50;99.90;;;;;;10270235;28;20074;-88
2022/01/29 08:31:54;;;;;;;114.13;43.23;;;0.70;99.90;;;;;;10288626;28;20482;-86
2022/01/29 08:36:58;;;;;;;100.23;41.80;;;0.80;99.90;;;;;;10303223;28;20812;-84
2022/01/29 08:41:59;;;;;;;92.47;36.90;;;0.80;99.90;;;;;;10294063;28;20058;-85
2022/01/29 08:47:00;;;;;;;89.03;36.33;;;1.00;99.90;;;;;;10272343;28;20058;-86
2022/01/29 08:52:01;;;;;;;63.33;24.67;;;1.20;99.90;;;;;;10275667;28;20522;-85
2022/01/29 08:57:02;;;;;;;49.97;20.73;;;1.30;99.90;;;;;;10283077;28;20054;-87
2022/01/29 09:02:06;;;;;;;61.07;26.47;;;1.40;99.90;;;;;;10268121;28;20121;-87
2022/01/29 09:07:06;;;;;;;58.60;23.47;;;1.40;99.90;;;;;;10277727;28;20077;-88
2022/01/29 09:12:07;;;;;;;64.50;24.47;;;1.40;99.90;;;;;;10273327;28;20523;-87
2022/01/29 09:17:08;;;;;;;83.07;30.13;;;1.50;99.90;;;;;;10272584;28;20039;-85
2022/01/29 09:22:09;;;;;;;56.03;23.00;;;1.50;99.90;;;;;;10282099;28;20027;-89
2022/01/29 09:27:09;;;;;;;77.17;30.43;;;1.60;99.90;;;;;;10283587;28;20056;-89
2022/01/29 09:32:11;;;;;;;67.20;25.57;;;1.70;99.90;;;;;;10284841;28;20027;-90
2022/01/29 09:37:11;;;;;;;52.57;21.70;;;1.80;99.90;;;;;;10286931;28;20053;-86
2022/01/29 09:42:13;;;;;;;56.47;23.30;;;1.90;99.90;;;;;;10286237;28;20046;-85
2022/01/29 09:47:17;;;;;;;62.83;23.87;;;1.80;99.90;;;;;;10284455;28;20041;-86
2022/01/29 09:52:17;;;;;;;53.50;23.90;;;1.90;99.90;;;;;;10283048;28;20427;-89
2022/01/29 09:57:19;;;;;;;52.37;21.43;;;2.10;99.90;;;;;;10253826;28;20046;-85
2022/01/29 10:02:20;;;;;;;38.40;16.70;;;2.20;99.90;;;;;;10262423;28;20455;-87
2022/01/29 10:07:29;;;;;;;45.63;16.03;;;2.10;99.90;;;;;;10297698;28;20529;-86
2022/01/29 10:12:31;;;;;;;37.47;13.10;;;2.30;99.90;;;;;;10292464;28;20078;-86
2022/01/29 10:17:45;;;;;;;41.00;16.97;;;2.40;99.90;;;;;;10276232;28;20098;-86
2022/01/29 10:57:10;;;;;;;37.37;14.97;;;2.80;99.90;;;;;;11124648;23;20050;-87
2022/01/29 11:02:45;;;;;;;41.47;15.97;;;2.90;99.90;;;;;;10302826;28;20426;-89
2022/01/29 11:13:04;;;;;;;43.70;15.83;;;2.80;99.90;;;;;;10598420;23;20718;-87
2022/01/29 11:18:05;;;;;;;35.30;12.77;;;2.80;99.90;;;;;;10284224;28;20592;-86
2022/01/29 11:23:06;;;;;;;38.07;14.67;;;2.90;99.90;;;;;;10288141;28;20034;-86
2022/01/29 11:28:17;;;;;;;30.03;13.70;;;2.90;99.90;;;;;;10289025;28;20624;-85
2022/01/29 11:33:18;;;;;;;37.07;14.53;;;3.00;99.90;;;;;;10286910;28;20065;-86
2022/01/29 11:38:32;;;;;;;59.93;18.37;;;3.10;99.90;;;;;;10276804;28;20039;-88
2022/01/29 11:43:34;;;;;;;44.07;16.17;;;3.10;99.90;;;;;;10263366;28;20038;-87
2022/01/29 11:48:50;;;;;;;28.97;12.40;;;3.10;99.90;;;;;;10284700;28;20379;-86
2022/01/29 11:53:50;;;;;;;86.90;28.57;;;3.00;99.90;;;;;;10271373;28;20108;-86
2022/01/29 11:59:20;;;;;;;38.17;13.43;;;3.00;99.90;;;;;;10289814;28;20085;-86
2022/01/29 12:04:23;;;;;;;68.00;21.97;;;3.00;99.90;;;;;;10284719;28;20089;-86
2022/01/29 12:09:25;;;;;;;50.23;16.00;;;3.00;99.90;;;;;;10268582;28;20062;-87
2022/01/29 12:14:26;;;;;;;43.43;18.47;;;2.90;99.90;;;;;;10271181;28;20395;-85
2022/01/29 12:19:46;;;;;;;49.13;16.43;;;2.80;99.90;;;;;;10288153;28;20043;-86
2022/01/29 12:24:59;;;;;;;62.90;20.53;;;2.70;99.90;;;;;;10282395;28;20035;-87
2022/01/29 12:29:59;;;;;;;53.77;19.53;;;2.70;99.90;;;;;;10284738;28;20710;-87
2022/01/29 12:35:03;;;;;;;45.17;20.80;;;2.60;99.90;;;;;;10285792;28;20041;-85
2022/01/29 12:40:21;;;;;;;54.83;20.97;;;2.50;99.90;;;;;;10286176;28;20027;-86
2022/01/29 12:45:24;;;;;;;34.00;14.80;;;2.50;99.90;;;;;;10275425;28;20015;-87
2022/01/29 12:50:24;;;;;;;60.03;20.87;;;2.40;99.90;;;;;;10228095;29;20031;-88
2022/01/29 12:55:25;;;;;;;93.03;33.97;;;2.40;99.90;;;;;;10266058;28;20019;-86
2022/01/29 13:00:29;;;;;;;84.73;31.80;;;2.40;99.90;;;;;;10283316;28;20035;-86
2022/01/29 13:05:30;;;;;;;110.93;36.33;;;2.50;99.90;;;;;;10266681;28;20023;-85
2022/01/29 13:10:33;;;;;;;38.67;15.73;;;2.50;99.90;;;;;;10285859;28;20039;-87
2022/01/29 13:15:39;;;;;;;57.50;20.73;;;2.50;99.90;;;;;;10268322;28;20093;-87
2022/01/29 13:20:40;;;;;;;58.23;20.97;;;2.50;99.90;;;;;;10268732;28;20039;-86
2022/01/29 13:25:41;;;;;;;61.77;19.07;;;2.50;99.90;;;;;;10268685;28;20129;-87
2022/01/29 13:30:45;;;;;;;57.37;21.33;;;2.50;99.90;;;;;;10285209;28;20031;-86
2022/01/29 13:35:51;;;;;;;46.90;19.30;;;2.40;99.90;;;;;;10269176;28;20042;-84
2022/01/29 13:40:55;;;;;;;;;;;2.40;99.90;;;;;;10290997;28;20049;-87
2022/01/29 13:46:08;;;;;;;47.70;17.40;;;2.30;99.90;;;;;;10292563;28;20266;-85
2022/01/29 13:51:11;;;;;;;54.30;18.30;;;2.20;99.90;;;;;;10292918;28;20058;-86
2022/01/29 13:56:15;;;;;;;55.53;22.20;;;2.20;99.90;;;;;;10283742;28;20035;-85
2022/01/29 14:01:41;;;;;;;48.47;20.33;;;2.20;99.90;;;;;;10275165;28;20023;-89
2022/01/29 14:06:53;;;;;;;48.30;17.92;;;2.10;99.90;;;;;;10293638;28;20057;-85
2022/01/29 14:11:57;;;;;;;42.70;16.57;;;2.10;99.90;;;;;;10274749;28;20494;-87
2022/01/29 14:17:00;;;;;;;37.03;15.57;;;2.00;99.90;;;;;;10293824;28;20513;-86
2022/01/29 14:22:02;;;;;;;85.37;25.83;;;2.00;99.90;;;;;;10293316;28;20506;-85
2022/01/29 14:27:03;;;;;;;109.83;33.37;;;1.90;99.90;;;;;;10293522;28;20046;-86
2022/01/29 14:32:04;;;;;;;113.57;36.73;;;1.80;99.90;;;;;;10281714;28;20382;-86
2022/01/29 14:37:05;;;;;;;55.73;20.63;;;1.80;99.90;;;;;;10292504;28;20038;-85
2022/01/29 14:42:08;;;;;;;75.47;24.73;;;1.70;99.90;;;;;;10293084;28;20509;-85
2022/01/29 14:47:08;;;;;;;68.07;25.93;;;1.60;99.90;;;;;;10293257;28;20109;-85
2022/01/29 14:52:09;;;;;;;58.87;23.93;;;1.50;99.90;;;;;;10290853;28;20041;-86
2022/01/29 14:57:10;;;;;;;55.47;21.67;;;1.50;99.90;;;;;;10291990;28;20037;-85
2022/01/29 15:02:11;;;;;;;60.80;24.57;;;1.40;99.90;;;;;;10291707;28;20089;-87
2022/01/29 15:07:12;;;;;;;42.27;16.93;;;1.30;99.90;;;;;;10291909;28;20027;-87
2022/01/29 15:12:12;;;;;;;50.57;21.60;;;1.30;99.90;;;;;;10291931;28;20070;-87
2022/01/29 15:17:13;;;;;;;47.17;21.27;;;1.30;99.90;;;;;;10291299;28;20037;-85
2022/01/29 15:22:13;;;;;;;41.97;17.80;;;1.30;99.90;;;;;;10292298;28;20050;-84
2022/01/29 15:27:14;;;;;;;69.07;28.23;;;1.30;99.90;;;;;;10273944;28;20117;-87
2022/01/29 15:32:16;;;;;;;43.83;19.90;;;1.30;99.90;;;;;;10290774;28;20114;-86
2022/01/29 15:37:20;;;;;;;45.13;19.40;;;1.30;99.90;;;;;;10273781;28;20062;-89
2022/01/29 15:42:21;;;;;;;43.90;19.47;;;1.20;99.90;;;;;;10290254;28;20038;-87
2022/01/29 15:47:22;;;;;;;37.27;16.83;;;1.20;99.90;;;;;;10290143;28;20058;-85
2022/01/29 15:52:22;;;;;;;33.93;16.60;;;1.20;99.90;;;;;;10272483;28;20073;-89
2022/01/29 15:57:24;;;;;;;36.07;17.77;;;1.20;99.90;;;;;;10272395;28;20442;-85
2022/01/29 16:02:26;;;;;;;34.53;16.37;;;1.30;99.90;;;;;;10289227;28;20027;-87
2022/01/29 16:07:27;;;;;;;41.60;19.43;;;1.30;99.90;;;;;;10289781;28;20030;-85
2022/01/29 16:12:31;;;;;;;44.10;18.63;;;1.30;99.90;;;;;;10271520;28;20054;-85
2022/01/29 16:17:33;;;;;;;44.47;21.40;;;1.30;99.90;;;;;;10289237;28;20486;-86
2022/01/29 16:22:33;;;;;;;33.53;16.63;;;1.30;99.90;;;;;;10289027;28;20157;-85
2022/01/29 16:27:34;;;;;;;31.00;15.33;;;1.30;99.90;;;;;;10288653;28;20525;-87
2022/01/29 16:32:35;;;;;;;41.27;21.20;;;1.30;99.90;;;;;;10288859;28;20027;-85
2022/01/29 16:37:37;;;;;;;43.07;19.17;;;1.30;99.90;;;;;;10271098;28;20051;-85
2022/01/29 16:42:37;;;;;;;49.43;23.27;;;1.30;99.90;;;;;;10287927;28;20041;-86
2022/01/29 16:47:39;;;;;;;36.00;17.40;;;1.30;99.90;;;;;;10288939;28;20031;-88
2022/01/29 16:52:40;;;;;;;43.80;21.67;;;1.30;99.90;;;;;;10287658;28;20041;-88
2022/01/29 16:57:41;;;;;;;41.93;20.13;;;1.30;99.90;;;;;;10270231;28;20037;-86
2022/01/29 17:02:41;;;;;;;49.40;22.63;;;1.40;99.90;;;;;;10287540;28;20467;-88
2022/01/29 17:07:42;;;;;;;50.80;20.17;;;1.30;99.90;;;;;;10287279;28;20483;-87
2022/01/29 17:12:44;;;;;;;51.00;20.93;;;1.40;99.90;;;;;;10269276;28;20061;-85
2022/01/29 17:17:45;;;;;;;54.27;24.23;;;1.40;99.90;;;;;;10286285;28;20043;-89
2022/01/29 17:22:46;;;;;;;60.10;26.87;;;1.40;99.90;;;;;;10270158;28;20360;-86
2022/01/29 17:27:47;;;;;;;50.17;22.80;;;1.40;99.90;;;;;;10287400;28;20027;-85
2022/01/29 17:32:48;;;;;;;69.77;26.83;;;1.40;99.90;;;;;;10269236;28;20166;-85
2022/01/29 17:37:53;;;;;;;56.07;22.40;;;1.40;99.90;;;;;;10286563;28;20597;-86
2022/01/29 17:42:54;;;;;;;71.27;29.60;;;1.50;99.90;;;;;;10286384;28;20442;-84
2022/01/29 17:47:54;;;;;;;104.13;35.87;;;1.50;99.90;;;;;;10287318;28;20027;-88
2022/01/29 17:52:55;;;;;;;87.90;33.37;;;1.50;99.90;;;;;;10286214;28;20598;-86
2022/01/29 17:57:56;;;;;;;58.50;22.77;;;1.50;99.90;;;;;;10286331;28;20037;-85
2022/01/29 18:02:57;;;;;;;117.63;40.03;;;1.50;99.90;;;;;;10286762;28;20483;-87
2022/01/29 18:07:57;;;;;;;94.80;32.97;;;1.50;99.90;;;;;;10286490;28;20019;-87
2022/01/29 18:12:58;;;;;;;38.43;19.43;;;1.60;99.90;;;;;;10268402;28;20510;-86
2022/01/29 18:17:59;;;;;;;59.67;26.10;;;1.60;99.90;;;;;;10285536;28;20039;-84
2022/01/29 18:22:59;;;;;;;69.03;27.20;;;1.60;99.90;;;;;;10268432;28;20110;-86
2022/01/29 18:28:02;;;;;;;49.10;22.47;;;1.60;99.90;;;;;;10274389;28;20120;-86
2022/01/29 18:33:03;;;;;;;50.80;24.73;;;1.70;99.90;;;;;;10292853;28;20120;-86
2022/01/29 18:38:03;;;;;;;58.07;25.40;;;1.70;99.90;;;;;;10293060;28;20070;-86
2022/01/29 18:43:04;;;;;;;62.77;26.90;;;1.70;99.90;;;;;;10292576;28;20551;-85
2022/01/29 18:48:05;;;;;;;50.43;23.80;;;1.70;99.90;;;;;;10292495;28;20134;-86
2022/01/29 18:53:07;;;;;;;58.67;26.10;;;1.80;99.90;;;;;;10275267;28;20468;-87
2022/01/29 18:58:10;;;;;;;61.67;28.80;;;1.80;99.90;;;;;;10274184;28;20078;-84
2022/01/29 19:03:11;;;;;;;51.97;23.33;;;1.80;99.90;;;;;;10292527;28;20109;-86
2022/01/29 19:08:12;;;;;;;86.67;32.67;;;1.80;99.90;;;;;;10274229;28;20216;-85
2022/01/29 19:13:13;;;;;;;49.67;24.70;;;1.90;99.90;;;;;;10274572;28;20058;-85
2022/01/29 19:18:14;;;;;;;70.47;31.73;;;1.90;99.90;;;;;;10291265;28;20039;-84
2022/01/29 19:23:19;;;;;;;82.00;32.40;;;1.90;99.90;;;;;;10273507;28;20033;-86
2022/01/29 19:28:19;;;;;;;54.93;27.47;;;1.90;99.90;;;;;;10291963;28;20056;-85
2022/01/29 19:33:21;;;;;;;49.83;26.30;;;1.90;99.90;;;;;;10273427;28;20037;-85
2022/01/29 19:38:22;;;;;;;53.73;27.20;;;2.00;99.90;;;;;;10272614;28;20046;-85
2022/01/29 19:43:23;;;;;;;65.20;30.80;;;2.00;99.90;;;;;;10290146;28;20031;-85
2022/01/29 19:48:23;;;;;;;60.67;27.37;;;2.00;99.90;;;;;;10290455;28;20372;-85
2022/01/29 19:53:24;;;;;;;68.87;31.17;;;2.10;99.90;;;;;;10290046;28;20102;-86
2022/01/29 19:58:25;;;;;;;68.17;30.10;;;2.10;99.90;;;;;;10289353;28;20069;-85
2022/01/29 20:03:26;;;;;;;59.07;28.33;;;2.10;99.90;;;;;;10272257;28;20109;-85
2022/01/29 20:08:27;;;;;;;65.63;30.03;;;2.10;99.90;;;;;;10272133;28;20122;-84
2022/01/29 20:13:28;;;;;;;50.23;22.73;;;2.20;99.90;;;;;;10272032;28;20141;-85
2022/01/29 20:18:29;;;;;;;60.73;27.33;;;2.20;99.90;;;;;;10289047;28;20098;-84
2022/01/29 20:23:29;;;;;;;63.97;26.20;;;2.30;99.90;;;;;;10271247;28;20081;-85
2022/01/29 20:28:30;;;;;;;51.20;24.70;;;2.30;99.90;;;;;;10288666;28;20395;-86
2022/01/29 20:33:31;;;;;;;56.87;26.47;;;2.30;99.90;;;;;;10270734;28;20577;-85
2022/01/29 20:38:31;;;;;;;55.07;28.13;;;2.40;99.90;;;;;;10271136;28;20608;-85
2022/01/29 20:43:32;;;;;;;63.53;29.87;;;2.40;99.90;;;;;;10288170;28;20517;-85
2022/01/29 20:48:33;;;;;;;64.20;29.10;;;2.40;99.90;;;;;;10287634;28;20023;-84
2022/01/29 20:53:33;;;;;;;59.47;26.47;;;2.40;99.90;;;;;;10287867;28;20034;-84
2022/01/29 20:58:34;;;;;;;56.17;25.87;;;2.40;99.90;;;;;;10287468;28;20051;-85
2022/01/29 21:03:35;;;;;;;71.03;29.13;;;2.50;99.90;;;;;;10270374;28;20065;-85
2022/01/29 21:08:35;;;;;;;62.93;26.60;;;2.50;99.90;;;;;;10284587;28;20401;-85
2022/01/29 21:13:36;;;;;;;60.33;26.50;;;2.50;99.90;;;;;;10268289;28;20403;-87
2022/01/29 21:18:37;;;;;;;52.37;24.73;;;2.50;99.90;;;;;;10287120;28;20043;-84
2022/01/29 21:23:38;;;;;;;54.17;25.00;;;2.50;99.90;;;;;;10286454;28;20383;-88
2022/01/29 21:28:39;;;;;;;57.23;25.77;;;2.50;99.90;;;;;;10286220;28;20057;-87
2022/01/29 21:33:39;;;;;;;75.60;35.87;;;2.50;99.90;;;;;;10286648;28;20031;-86
2022/01/29 21:38:40;;;;;;;61.63;31.83;;;2.50;99.90;;;;;;10285950;28;20053;-84
2022/01/29 21:43:40;;;;;;;81.80;35.63;;;2.50;99.90;;;;;;10286684;28;20472;-86
2022/01/29 21:48:41;;;;;;;61.03;30.53;;;2.60;99.90;;;;;;10268166;28;20038;-84
2022/01/29 21:53:42;;;;;;;68.13;30.83;;;2.60;99.90;;;;;;10285764;28;20037;-87
2022/01/29 21:58:42;;;;;;;55.10;27.63;;;2.60;99.90;;;;;;10286092;28;20137;-85
2022/01/29 22:03:43;;;;;;;60.57;27.73;;;2.60;99.90;;;;;;10275645;28;20035;-85
2022/01/29 22:08:43;;;;;;;43.43;21.23;;;2.70;99.90;;;;;;10293870;28;20031;-83
2022/01/29 22:13:44;;;;;;;45.70;21.63;;;2.80;99.90;;;;;;10292822;28;20043;-84
2022/01/29 22:18:44;;;;;;;45.73;21.80;;;2.80;99.90;;;;;;10293516;28;20130;-84
2022/01/29 22:23:45;;;;;;;46.87;23.13;;;2.80;99.90;;;;;;10285062;28;20396;-84
2022/01/29 22:28:46;;;;;;;44.67;21.50;;;2.80;99.90;;;;;;10275722;28;20058;-84
2022/01/29 22:33:48;;;;;;;50.67;23.70;;;2.80;99.90;;;;;;10292903;28;20027;-83
2022/01/29 22:38:51;;;;;;;37.90;19.83;;;2.90;99.90;;;;;;10286252;28;20072;-84
2022/01/29 22:43:53;;;;;;;54.77;28.90;;;2.90;99.90;;;;;;10274531;28;21674;-83
2022/01/29 22:48:53;;;;;;;54.10;26.70;;;2.90;99.90;;;;;;10292399;28;20081;-84
2022/01/29 22:53:54;;;;;;;48.87;26.13;;;3.00;99.90;;;;;;10275495;28;20027;-84
2022/01/29 22:58:54;;;;;;;42.80;22.80;;;3.00;99.90;;;;;;10291704;28;20546;-84
2022/01/29 23:03:55;;;;;;;52.23;25.20;;;3.00;99.90;;;;;;10273839;28;20093;-83
2022/01/29 23:08:56;;;;;;;48.57;24.93;;;3.00;99.90;;;;;;10291970;28;20378;-84
2022/01/29 23:14:08;;;;;;;44.73;23.50;;;3.10;99.90;;;;;;10290061;28;20066;-83
2022/01/29 23:19:12;;;;;;;50.33;24.23;;;3.10;99.90;;;;;;10291676;28;20087;-84
2022/01/29 23:24:14;;;;;;;35.37;18.57;;;3.10;99.90;;;;;;10291023;28;20117;-83
2022/01/29 23:34:26;;;;;;;35.27;17.23;;;3.10;99.90;;;;;;10291282;28;20093;-83
2022/01/29 23:39:31;;;;;;;43.67;19.40;;;3.00;99.90;;;;;;10289978;28;20482;-85
2022/01/29 23:49:32;;;;;;;33.97;16.87;;;3.10;99.90;;;;;;10289973;28;20205;-83
2022/01/29 23:54:34;;;;;;;43.20;22.60;;;3.10;99.90;;;;;;10289510;28;20062;-86
2022/01/29 23:59:34;;;;;;;36.37;18.03;;;3.20;99.90;;;;;;10289494;28;20049;-84
